Terminal Aerodrome Forecast
Issued by NWS Duluth, MN

Home | Current Version | Previous Version | Graphics & Text | Print | Product List | Glossary On
Versions: 1 2 3 4 5 6 7 8 9 10 11 12 13 14 15 16 17 18 19 20 21 22 23 24 25 26 27 28
558
FTUS43 KDLH 300535
TAFINL
TAF
KINL 300535Z 3006/3106 29009KT P6SM VCSH OVC025
     FM300700 30008KT 6SM -SHRA BR OVC012
     FM301100 30008KT P6SM VCSH OVC012
     FM301400 30011G18KT P6SM VCSH OVC015
     FM302200 30012G20KT P6SM VCSH BKN012 OVC025
     FM310100 31009KT P6SM BKN025
     FM310400 30005KT P6SM BKN040=

USA.gov is the U.S. government's official web portal to all federal, state and local government web resources and services.